createdAt,value
2023-12-22T00:00:35.103Z,0.80
2023-12-22T00:03:23.554Z,0.98
2023-12-22T00:05:51.004Z,0.85
2023-12-22T00:08:18.708Z,1.02
2023-12-22T00:10:46.195Z,0.77
2023-12-22T00:13:13.977Z,0.43
2023-12-22T00:15:41.500Z,0.40
2023-12-22T00:18:09.522Z,0.73
2023-12-22T00:20:37.799Z,0.65
2023-12-22T00:23:05.554Z,0.70
2023-12-22T00:25:33.271Z,0.50
2023-12-22T00:28:00.962Z,0.43
2023-12-22T00:30:28.481Z,0.88
2023-12-22T00:32:56.189Z,0.70
2023-12-22T00:35:23.714Z,0.30
2023-12-22T00:37:51.721Z,0.30
2023-12-22T00:40:19.314Z,0.20
2023-12-22T00:42:47.024Z,0.30
2023-12-22T00:45:14.632Z,0.30
2023-12-22T00:47:43.350Z,0.10
2023-12-22T00:50:11.057Z,0.40
2023-12-22T00:52:39.400Z,0.30
2023-12-22T00:55:07.048Z,0.38
2023-12-22T00:57:34.817Z,0.10
2023-12-22T01:00:02.666Z,0.10
2023-12-22T01:02:30.389Z,0.00
2023-12-22T01:04:58.629Z,0.10
2023-12-22T01:07:27.120Z,0.10
2023-12-22T01:09:55.095Z,0.10
2023-12-22T01:12:22.752Z,0.10
2023-12-22T01:14:53.078Z,0.10
2023-12-22T01:17:20.846Z,0.10
2023-12-22T01:19:48.259Z,0.00
2023-12-22T01:22:16.048Z,0.20
2023-12-22T01:24:44.730Z,0.10
2023-12-22T01:27:13.168Z,0.00
2023-12-22T01:29:40.475Z,0.00
2023-12-22T01:32:08.392Z,0.00
2023-12-22T01:34:35.866Z,0.08
2023-12-22T01:37:03.804Z,0.10
2023-12-22T01:39:31.371Z,0.00
2023-12-22T01:41:58.972Z,0.00
2023-12-22T01:44:26.370Z,0.00
2023-12-22T01:46:54.247Z,0.10
2023-12-22T01:49:23.488Z,0.00
2023-12-22T01:51:51.455Z,0.10
2023-12-22T01:54:19.575Z,0.00
2023-12-22T01:56:47.641Z,0.05
2023-12-22T01:59:15.111Z,0.08
2023-12-22T02:01:46.139Z,0.20
2023-12-22T02:04:15.397Z,0.13
2023-12-22T02:06:43.934Z,0.10
2023-12-22T02:09:11.636Z,0.03
2023-12-22T02:11:40.607Z,0.10
2023-12-22T02:14:08.757Z,0.20
2023-12-22T02:17:06.198Z,0.43
2023-12-22T02:19:39.297Z,0.10
2023-12-22T02:22:09.899Z,0.30
2023-12-22T02:24:38.526Z,0.20
2023-12-22T02:27:29.193Z,0.40
2023-12-22T02:30:08.889Z,0.20
2023-12-22T02:32:41.366Z,0.10
2023-12-22T02:35:13.059Z,0.30
2023-12-22T02:37:42.704Z,0.40
2023-12-22T02:40:13.349Z,0.50
2023-12-22T02:42:41.428Z,0.40
2023-12-22T02:45:15.537Z,0.40
2023-12-22T02:47:43.858Z,0.82
2023-12-22T02:50:13.206Z,0.60
2023-12-22T02:52:40.917Z,0.60
2023-12-22T02:55:08.929Z,0.50
2023-12-22T02:57:36.747Z,0.57
2023-12-22T03:00:04.470Z,0.85
2023-12-22T03:02:32.448Z,0.80
2023-12-22T03:04:59.991Z,0.85
2023-12-22T03:07:27.865Z,0.98
2023-12-22T03:09:55.246Z,1.60
2023-12-22T03:12:22.812Z,1.00
2023-12-22T03:14:50.148Z,1.23
2023-12-22T03:17:17.790Z,1.58
2023-12-22T03:19:45.337Z,0.98
2023-12-22T03:22:13.097Z,0.60
2023-12-22T03:24:40.436Z,0.75
2023-12-22T03:27:08.138Z,0.75
2023-12-22T03:29:35.619Z,0.80
2023-12-22T03:32:03.476Z,0.40
2023-12-22T03:34:31.439Z,0.57
2023-12-22T03:36:59.180Z,0.20
2023-12-22T03:39:26.446Z,0.40
2023-12-22T03:41:54.102Z,0.25
2023-12-22T03:44:24.662Z,0.20
2023-12-22T03:46:54.202Z,0.28
2023-12-22T03:49:21.791Z,0.50
2023-12-22T03:51:52.242Z,0.60
2023-12-22T03:54:19.960Z,0.50
2023-12-22T03:56:47.520Z,0.45
2023-12-22T03:59:14.871Z,0.60
2023-12-22T04:01:43.431Z,0.60
2023-12-22T04:04:10.828Z,0.40
2023-12-22T04:06:41.715Z,0.65
2023-12-22T04:09:09.229Z,0.32
2023-12-22T04:11:40.374Z,0.50
2023-12-22T04:14:08.255Z,0.50
2023-12-22T04:16:38.385Z,0.75
2023-12-22T04:19:08.300Z,0.73
2023-12-22T04:21:36.805Z,0.55
2023-12-22T04:24:04.366Z,0.73
2023-12-22T04:26:31.994Z,0.47
2023-12-22T04:29:00.340Z,0.50
2023-12-22T04:31:28.164Z,0.60
2023-12-22T04:33:57.187Z,0.50
2023-12-22T04:36:24.933Z,0.45
2023-12-22T04:38:52.738Z,0.52
2023-12-22T04:41:20.584Z,0.80
2023-12-22T04:43:47.979Z,0.52
2023-12-22T04:46:15.633Z,1.77
2023-12-22T04:48:43.079Z,0.70
2023-12-22T04:51:10.810Z,0.20
2023-12-22T04:53:38.115Z,0.55
2023-12-22T04:56:06.184Z,0.13
2023-12-22T04:58:33.739Z,0.10
2023-12-22T05:01:01.522Z,0.10
2023-12-22T05:03:29.290Z,0.20
2023-12-22T05:05:57.194Z,0.10
2023-12-22T05:08:24.805Z,0.30
2023-12-22T05:10:52.538Z,0.63
2023-12-22T05:13:20.043Z,0.55
2023-12-22T05:15:47.891Z,0.40
2023-12-22T05:18:16.281Z,0.80
2023-12-22T05:20:44.953Z,0.57
2023-12-22T05:23:12.394Z,0.85
2023-12-22T05:25:40.127Z,2.22
2023-12-22T05:28:07.457Z,2.17
2023-12-22T05:30:35.161Z,2.13
2023-12-22T05:33:02.571Z,1.98
2023-12-22T05:35:30.365Z,2.60
2023-12-22T05:37:57.846Z,2.42
2023-12-22T05:40:25.665Z,4.70
2023-12-22T05:42:52.927Z,1.90
2023-12-22T05:45:20.524Z,2.05
2023-12-22T05:47:48.555Z,3.50
2023-12-22T05:50:16.650Z,3.60
2023-12-22T05:52:47.439Z,2.95
2023-12-22T05:55:15.057Z,2.43
2023-12-22T05:57:42.394Z,2.83
2023-12-22T06:00:12.469Z,3.15
2023-12-22T06:02:39.995Z,3.20
2023-12-22T06:05:08.128Z,2.97
2023-12-22T06:07:35.720Z,2.22
2023-12-22T06:10:03.482Z,3.47
2023-12-22T06:12:30.937Z,2.20
2023-12-22T06:14:58.504Z,2.60
2023-12-22T06:17:26.029Z,2.50
2023-12-22T06:19:53.883Z,2.10
2023-12-22T06:22:21.673Z,2.03
2023-12-22T06:24:49.308Z,1.80
2023-12-22T06:27:16.617Z,1.95
2023-12-22T06:29:44.208Z,1.92
2023-12-22T06:32:11.725Z,1.98
2023-12-22T06:34:39.386Z,2.03
2023-12-22T06:37:08.918Z,1.55
2023-12-22T06:39:36.636Z,1.15
2023-12-22T06:42:06.803Z,1.50
2023-12-22T06:44:34.647Z,0.82
2023-12-22T06:47:02.224Z,1.30
2023-12-22T06:49:30.099Z,1.70
2023-12-22T06:51:58.033Z,1.30
2023-12-22T06:54:25.845Z,2.08
2023-12-22T06:56:53.299Z,1.55
2023-12-22T07:01:56.161Z,0.85
2023-12-22T07:05:08.693Z,0.90
2023-12-22T07:07:37.178Z,2.35
2023-12-22T07:10:05.489Z,1.10
2023-12-22T07:12:33.543Z,1.20
2023-12-22T07:15:01.443Z,1.17
2023-12-22T07:17:28.949Z,0.80
2023-12-22T07:19:59.826Z,1.05
2023-12-22T07:22:27.500Z,1.13
2023-12-22T07:24:57.731Z,0.95
2023-12-22T07:27:27.886Z,0.82
2023-12-22T07:29:57.448Z,1.35
2023-12-22T07:32:24.810Z,1.40
2023-12-22T07:34:52.559Z,1.15
2023-12-22T07:37:20.076Z,1.00
2023-12-22T07:39:47.861Z,1.15
2023-12-22T07:42:15.252Z,1.30
2023-12-22T07:44:43.068Z,1.45
2023-12-22T07:47:11.907Z,0.90
2023-12-22T07:49:40.306Z,2.35
2023-12-22T07:52:07.869Z,1.33
2023-12-22T07:54:35.448Z,1.42
2023-12-22T07:57:03.025Z,1.45
2023-12-22T07:59:32.414Z,1.13
2023-12-22T08:02:01.133Z,1.80
2023-12-22T08:04:29.123Z,1.48
2023-12-22T08:06:56.644Z,1.23
2023-12-22T08:09:24.596Z,1.65
2023-12-22T08:11:54.284Z,1.60
2023-12-22T08:14:22.271Z,0.93
2023-12-22T08:16:50.644Z,1.00
2023-12-22T08:19:18.729Z,1.10
2023-12-22T08:21:47.864Z,1.20
2023-12-22T08:24:22.375Z,1.20
2023-12-22T08:26:52.724Z,1.25
2023-12-22T08:29:20.979Z,2.53
2023-12-22T08:31:49.025Z,1.30
2023-12-22T08:34:16.890Z,1.80
2023-12-22T08:36:45.108Z,1.48
2023-12-22T08:39:14.222Z,1.33
2023-12-22T08:41:42.173Z,1.45
2023-12-22T08:44:11.441Z,1.77
2023-12-22T08:46:39.171Z,1.65
2023-12-22T08:49:07.044Z,1.83
2023-12-22T08:51:35.238Z,2.00
2023-12-22T08:54:03.074Z,2.15
2023-12-22T08:56:30.385Z,1.42
2023-12-22T08:59:00.377Z,1.70
2023-12-22T09:01:28.455Z,1.98
2023-12-22T09:03:56.034Z,1.48
2023-12-22T09:06:24.226Z,1.08
2023-12-22T09:08:52.119Z,1.35
2023-12-22T09:11:21.499Z,1.45
2023-12-22T09:13:49.260Z,1.27
2023-12-22T09:16:22.464Z,0.88
2023-12-22T09:18:51.343Z,0.70
2023-12-22T09:21:19.606Z,0.88
2023-12-22T09:23:49.903Z,0.68
2023-12-22T09:26:17.583Z,0.82
2023-12-22T09:28:46.036Z,1.00
2023-12-22T09:31:16.856Z,0.50
2023-12-22T09:33:44.785Z,1.30
2023-12-22T09:36:13.401Z,1.00
2023-12-22T09:38:43.097Z,0.95
2023-12-22T09:41:11.938Z,0.93
2023-12-22T09:43:41.403Z,0.80
2023-12-22T09:46:10.422Z,0.75
2023-12-22T09:48:41.502Z,0.70
2023-12-22T09:51:10.224Z,0.82
2023-12-22T09:53:40.984Z,0.65
2023-12-22T09:56:09.267Z,0.60
2023-12-22T09:58:37.900Z,0.43
2023-12-22T10:01:06.958Z,0.38
2023-12-22T10:03:36.251Z,0.80
2023-12-22T10:06:04.752Z,0.40
2023-12-22T10:08:33.823Z,0.70
2023-12-22T10:11:01.457Z,0.43
2023-12-22T10:13:29.501Z,0.88
2023-12-22T10:15:57.493Z,0.50
2023-12-22T10:18:25.570Z,0.45
2023-12-22T10:20:53.269Z,0.65
2023-12-22T10:23:21.073Z,0.70
2023-12-22T10:25:49.069Z,0.65
2023-12-22T10:28:17.044Z,0.68
2023-12-22T10:30:46.708Z,0.68
2023-12-22T10:33:14.422Z,0.63
2023-12-22T10:35:43.370Z,0.88
2023-12-22T10:38:11.067Z,2.60
2023-12-22T10:40:39.240Z,2.65
2023-12-22T10:43:08.102Z,1.80
2023-12-22T10:45:36.087Z,1.63
2023-12-22T10:48:05.056Z,1.90
2023-12-22T10:50:33.259Z,1.25
2023-12-22T10:53:02.812Z,1.30
2023-12-22T10:55:30.255Z,1.42
2023-12-22T10:57:58.033Z,1.30
2023-12-22T11:00:27.249Z,1.05
2023-12-22T11:03:03.199Z,1.02
2023-12-22T11:05:34.167Z,0.73
2023-12-22T11:08:04.239Z,1.10
2023-12-22T11:10:33.403Z,0.73
2023-12-22T11:13:02.828Z,0.93
2023-12-22T11:15:31.152Z,0.80
2023-12-22T11:18:00.565Z,0.77
2023-12-22T11:20:33.561Z,0.70
2023-12-22T11:23:02.221Z,0.75
2023-12-22T11:25:31.328Z,0.77
2023-12-22T11:28:00.580Z,0.60
2023-12-22T11:30:28.194Z,0.77
2023-12-22T11:32:58.638Z,0.80
2023-12-22T11:35:32.467Z,1.13
2023-12-22T11:38:04.170Z,0.93
2023-12-22T11:40:32.899Z,0.85
2023-12-22T11:43:02.600Z,0.50
2023-12-22T11:45:34.278Z,0.60
2023-12-22T11:48:08.240Z,0.60
2023-12-22T11:50:35.808Z,0.60
2023-12-22T11:53:26.993Z,0.50
2023-12-22T11:56:06.649Z,0.70
2023-12-22T11:58:42.058Z,0.85
2023-12-22T12:01:13.934Z,0.43
2023-12-22T12:03:58.512Z,0.40
2023-12-22T12:06:30.650Z,0.50
2023-12-22T12:09:00.122Z,0.60
2023-12-22T12:11:53.814Z,0.43
2023-12-22T12:14:27.462Z,0.50
2023-12-22T12:17:12.518Z,0.55
2023-12-22T12:19:43.648Z,0.20
2023-12-22T12:22:14.369Z,0.70
2023-12-22T12:24:43.940Z,0.20
2023-12-22T12:27:11.715Z,0.38
2023-12-22T12:29:40.904Z,0.30
2023-12-22T12:32:08.724Z,0.43
2023-12-22T12:34:38.862Z,0.35
2023-12-22T12:37:07.248Z,0.32
2023-12-22T12:39:36.673Z,0.30
2023-12-22T12:42:09.355Z,0.30
2023-12-22T12:44:38.645Z,0.40
2023-12-22T12:47:18.418Z,0.40
2023-12-22T12:49:46.416Z,0.30
2023-12-22T12:52:15.554Z,0.63
2023-12-22T12:54:43.954Z,0.40
2023-12-22T12:57:20.643Z,0.30
2023-12-22T12:59:49.669Z,0.30
2023-12-22T13:02:18.312Z,0.40
2023-12-22T13:04:46.809Z,0.63
2023-12-22T13:07:14.405Z,0.60
2023-12-22T13:09:43.342Z,0.45
2023-12-22T13:12:12.066Z,0.50
2023-12-22T13:14:39.694Z,0.43
2023-12-22T13:17:07.636Z,0.25
2023-12-22T13:19:35.609Z,0.45
2023-12-22T13:22:03.273Z,0.40
2023-12-22T13:24:31.322Z,0.45
2023-12-22T13:27:08.230Z,0.45
2023-12-22T13:29:47.016Z,0.73
2023-12-22T13:32:19.143Z,0.60
2023-12-22T13:34:51.994Z,0.43
2023-12-22T13:37:20.063Z,0.45
2023-12-22T13:39:48.371Z,0.57
2023-12-22T13:42:21.206Z,0.43
2023-12-22T13:44:50.844Z,0.75
2023-12-22T13:47:18.419Z,0.57
2023-12-22T13:49:48.181Z,0.50
2023-12-22T13:52:38.421Z,0.25
2023-12-22T13:55:13.298Z,0.45
2023-12-22T13:57:41.138Z,0.50
2023-12-22T14:00:20.819Z,0.63
2023-12-22T14:02:52.361Z,0.68
2023-12-22T14:05:20.779Z,0.68
2023-12-22T14:07:49.808Z,0.40
2023-12-22T14:10:18.331Z,0.60
2023-12-22T14:12:45.800Z,0.50
2023-12-22T14:15:14.541Z,0.50
2023-12-22T14:17:44.834Z,0.40
2023-12-22T14:20:13.034Z,0.50
2023-12-22T14:22:40.888Z,0.40
2023-12-22T14:25:10.196Z,0.57
2023-12-22T14:27:37.714Z,0.35
2023-12-22T14:30:06.093Z,0.47
2023-12-22T14:32:33.463Z,0.65
2023-12-22T14:35:05.310Z,0.30
2023-12-22T14:37:34.086Z,0.40
2023-12-22T14:40:01.719Z,0.38
2023-12-22T14:42:29.117Z,0.57
2023-12-22T14:44:56.893Z,0.50
2023-12-22T14:47:24.479Z,0.40
2023-12-22T14:49:52.129Z,0.90
2023-12-22T14:52:19.730Z,0.50
2023-12-22T14:54:47.446Z,0.57
2023-12-22T14:57:15.878Z,0.40
2023-12-22T14:59:45.987Z,0.52
2023-12-22T15:02:13.483Z,0.63
2023-12-22T15:04:41.169Z,0.73
2023-12-22T15:07:09.194Z,0.93
2023-12-22T15:09:40.599Z,0.57
2023-12-22T15:12:07.973Z,0.60
2023-12-22T15:14:35.679Z,0.77
2023-12-22T15:17:03.139Z,0.60
2023-12-22T15:19:30.819Z,0.47
2023-12-22T15:21:58.254Z,0.63
2023-12-22T15:24:27.640Z,0.30
2023-12-22T15:26:55.360Z,0.52
2023-12-22T15:29:23.124Z,0.90
2023-12-22T15:31:50.864Z,0.45
2023-12-22T15:34:18.559Z,0.40
2023-12-22T15:36:47.663Z,0.70
2023-12-22T15:39:15.240Z,0.75
2023-12-22T15:41:42.598Z,0.52
2023-12-22T15:44:10.402Z,0.70
2023-12-22T15:46:37.760Z,0.57
2023-12-22T15:49:05.506Z,0.90
2023-12-22T15:51:32.967Z,0.82
2023-12-22T15:54:00.512Z,0.90
2023-12-22T15:56:27.862Z,0.68
2023-12-22T15:58:55.646Z,0.68
2023-12-22T16:01:23.074Z,0.77
2023-12-22T16:03:52.604Z,1.50
2023-12-22T16:06:20.832Z,0.98
2023-12-22T16:08:48.744Z,1.25
2023-12-22T16:11:16.097Z,0.95
2023-12-22T16:13:44.470Z,1.10
2023-12-22T16:16:19.164Z,1.50
2023-12-22T16:18:47.208Z,1.50
2023-12-22T16:21:14.710Z,1.00
2023-12-22T16:23:42.469Z,0.90
2023-12-22T16:26:10.389Z,1.50
2023-12-22T16:28:38.208Z,1.33
2023-12-22T16:31:05.716Z,1.42
2023-12-22T16:33:33.630Z,1.40
2023-12-22T16:36:01.177Z,1.65
2023-12-22T16:38:28.943Z,1.75
2023-12-22T16:40:56.813Z,1.38
2023-12-22T16:43:24.555Z,1.45
2023-12-22T16:45:51.889Z,1.70
2023-12-22T16:48:19.732Z,1.80
2023-12-22T16:50:47.116Z,1.33
2023-12-22T16:53:15.008Z,1.52
2023-12-22T16:55:42.416Z,1.80
2023-12-22T16:58:10.128Z,1.85
2023-12-22T17:00:37.767Z,2.20
2023-12-22T17:03:05.673Z,2.22
2023-12-22T17:05:33.681Z,2.45
2023-12-22T17:08:01.956Z,2.63
2023-12-22T17:10:29.747Z,2.78
2023-12-22T17:12:57.353Z,2.88
2023-12-22T17:15:24.690Z,3.40
2023-12-22T17:17:52.454Z,3.85
2023-12-22T17:20:19.925Z,3.90
2023-12-22T17:22:49.411Z,3.25
2023-12-22T17:25:19.176Z,3.03
2023-12-22T17:27:47.233Z,2.90
2023-12-22T17:30:14.979Z,3.35
2023-12-22T17:32:42.820Z,2.97
2023-12-22T17:35:10.288Z,2.85
2023-12-22T17:37:39.105Z,3.10
2023-12-22T17:40:07.229Z,3.08
2023-12-22T17:42:34.881Z,3.40
2023-12-22T17:45:02.698Z,3.63
2023-12-22T17:47:30.600Z,3.08
2023-12-22T17:49:58.029Z,3.17
2023-12-22T17:52:25.797Z,3.35
2023-12-22T17:54:53.194Z,3.10
2023-12-22T17:57:20.846Z,3.25
2023-12-22T17:59:48.128Z,3.58
2023-12-22T18:02:17.136Z,3.10
2023-12-22T18:04:44.706Z,3.10
2023-12-22T18:07:12.369Z,2.53
2023-12-22T18:09:41.165Z,3.60
2023-12-22T18:12:09.051Z,3.33
2023-12-22T18:14:36.486Z,2.85
2023-12-22T18:17:04.635Z,3.00
2023-12-22T18:19:32.261Z,3.58
2023-12-22T18:22:00.016Z,3.13
2023-12-22T18:24:27.500Z,3.45
2023-12-22T18:26:55.236Z,4.03
2023-12-22T18:29:22.636Z,3.20
2023-12-22T18:31:51.107Z,2.88
2023-12-22T18:34:18.626Z,3.50
2023-12-22T18:36:46.498Z,2.85
2023-12-22T18:39:13.990Z,3.25
2023-12-22T18:41:41.638Z,4.28
2023-12-22T18:44:09.267Z,4.22
2023-12-22T18:46:37.048Z,3.03
2023-12-22T18:49:05.758Z,3.25
2023-12-22T18:51:33.438Z,3.17
2023-12-22T18:54:00.770Z,2.83
2023-12-22T18:56:28.565Z,2.60
2023-12-22T18:58:58.049Z,2.55
2023-12-22T19:01:35.545Z,3.63
2023-12-22T19:04:11.508Z,2.63
2023-12-22T19:06:39.219Z,5.25
2023-12-22T19:09:09.019Z,3.20
2023-12-22T19:11:36.872Z,3.25
2023-12-22T19:14:04.463Z,3.45
2023-12-22T19:16:32.887Z,3.10
2023-12-22T19:19:00.272Z,3.05
2023-12-22T19:21:28.741Z,2.97
2023-12-22T19:23:56.220Z,2.72
2023-12-22T19:26:23.979Z,4.80
2023-12-22T19:28:51.339Z,3.33
2023-12-22T19:31:19.348Z,3.00
2023-12-22T19:33:47.032Z,5.03
2023-12-22T19:36:14.781Z,3.70
2023-12-22T19:38:42.149Z,3.03
2023-12-22T19:41:09.955Z,2.95
2023-12-22T19:43:37.408Z,3.05
2023-12-22T19:46:05.276Z,3.38
2023-12-22T19:48:32.719Z,3.25
2023-12-22T19:51:00.382Z,3.00
2023-12-22T19:53:27.833Z,3.40
2023-12-22T19:55:55.461Z,3.13
2023-12-22T19:58:23.270Z,3.05
2023-12-22T20:00:51.016Z,3.08
2023-12-22T20:03:18.416Z,3.20
2023-12-22T20:05:47.535Z,2.60
2023-12-22T20:08:15.073Z,2.30
2023-12-22T20:10:42.679Z,3.45
2023-12-22T20:13:10.438Z,2.92
2023-12-22T20:15:38.320Z,3.10
2023-12-22T20:18:05.875Z,3.28
2023-12-22T20:20:33.914Z,3.10
2023-12-22T20:23:01.434Z,3.20
2023-12-22T20:25:29.015Z,2.55
2023-12-22T20:27:56.578Z,3.25
2023-12-22T20:30:24.305Z,3.47
2023-12-22T20:32:52.263Z,3.28
2023-12-22T20:35:20.233Z,3.17
2023-12-22T20:37:47.851Z,2.40
2023-12-22T20:40:15.766Z,2.83
2023-12-22T20:42:43.135Z,2.85
2023-12-22T20:45:11.180Z,2.47
2023-12-22T20:47:38.717Z,2.63
2023-12-22T20:50:06.899Z,2.45
2023-12-22T20:52:35.593Z,2.72
2023-12-22T20:55:04.687Z,2.60
2023-12-22T20:57:32.056Z,2.28
2023-12-22T20:59:59.850Z,2.28
2023-12-22T21:02:27.433Z,2.92
2023-12-22T21:04:55.230Z,2.60
2023-12-22T21:07:25.574Z,3.00
2023-12-22T21:09:53.467Z,2.60
2023-12-22T21:12:20.922Z,2.63
2023-12-22T21:14:50.708Z,2.58
2023-12-22T21:17:21.046Z,2.35
2023-12-22T21:19:49.045Z,3.28
2023-12-22T21:22:17.272Z,2.20
2023-12-22T21:24:45.058Z,3.00
2023-12-22T21:27:12.434Z,2.33
2023-12-22T21:29:44.320Z,2.65
2023-12-22T21:32:12.015Z,2.97
2023-12-22T21:34:40.911Z,2.65
2023-12-22T21:37:09.289Z,2.38
2023-12-22T21:39:37.207Z,2.47
2023-12-22T21:42:05.398Z,2.47
2023-12-22T21:44:33.179Z,2.58
2023-12-22T21:47:00.812Z,2.72
2023-12-22T21:49:28.702Z,2.83
2023-12-22T21:51:55.989Z,2.30
2023-12-22T21:54:25.660Z,3.28
2023-12-22T21:56:54.385Z,3.58
2023-12-22T21:59:21.987Z,2.72
2023-12-22T22:01:49.385Z,2.70
2023-12-22T22:04:17.355Z,2.63
2023-12-22T22:06:44.811Z,3.20
2023-12-22T22:09:13.113Z,3.40
2023-12-22T22:11:40.764Z,1.95
2023-12-22T22:14:18.502Z,2.13
2023-12-22T22:16:53.745Z,2.90
2023-12-22T22:19:21.582Z,2.15
2023-12-22T22:21:49.038Z,2.20
2023-12-22T22:24:16.708Z,1.73
2023-12-22T22:26:44.162Z,2.90
2023-12-22T22:29:13.015Z,2.00
2023-12-22T22:31:41.732Z,2.13
2023-12-22T22:34:10.216Z,2.30
2023-12-22T22:36:37.736Z,2.22
2023-12-22T22:39:07.318Z,2.75
2023-12-22T22:41:35.750Z,2.55
2023-12-22T22:44:03.608Z,1.92
2023-12-22T22:46:30.949Z,1.77
2023-12-22T22:48:58.743Z,2.53
2023-12-22T22:51:27.440Z,2.17
2023-12-22T22:53:55.711Z,1.90
2023-12-22T22:56:23.111Z,1.60
2023-12-22T22:58:51.040Z,1.90
2023-12-22T23:01:18.628Z,2.35
2023-12-22T23:03:46.387Z,1.95
2023-12-22T23:06:13.827Z,2.13
2023-12-22T23:08:41.534Z,2.08
2023-12-22T23:11:09.195Z,2.33
2023-12-22T23:13:37.040Z,1.50
2023-12-22T23:16:05.313Z,2.00
2023-12-22T23:18:33.046Z,1.70
2023-12-22T23:21:01.494Z,1.17
2023-12-22T23:23:29.231Z,1.88
2023-12-22T23:25:56.704Z,2.08
2023-12-22T23:28:24.383Z,1.33
2023-12-22T23:30:51.733Z,2.05
2023-12-22T23:33:19.434Z,1.73
2023-12-22T23:35:46.938Z,1.42
2023-12-22T23:38:14.720Z,1.48
2023-12-22T23:40:42.869Z,1.98
2023-12-22T23:43:10.497Z,1.50
2023-12-22T23:45:37.989Z,2.00
2023-12-22T23:48:07.160Z,1.88
2023-12-22T23:50:35.602Z,1.40
2023-12-22T23:53:03.364Z,1.58
2023-12-22T23:55:30.808Z,1.38
2023-12-22T23:57:58.449Z,1.70
